Aeroporto :
LOGIN :

Iscrizione | Disclaimer

   EN    FR    IT 

 










Sommario :    VFR   VFR Marginale   IFR   IFR Intensivo   IFR Molto Intensivo
Visibilità : 
Base nubi : 
>= 8 km
>= 3000ft
5 / 8 km
1000 / 3000 ft
1500m / 5 km
500 / 1000 ft
800 / 1500m
200 / 500 ft
< 800m
< 200 ft
Simboli :   Temporali  Nebbia  Neve Forte  Precipitazioni Forti  Vento > 20 kt
SIGMETs :   Varie  Temporali  Ghiacco  Turbolenza  Onda orograficha  Ceneri Vulcaniche






- Altitudine del aeroporto : 162 ft
- Codice IATA : BOD


LFBD - Bordeaux / Merignac

ULTIMO METAR :
  • 281130Z AUTO 08007KT 040V140 CAVOK 28/13 Q1023 NOSIG

METARs OBSOLETI :
  • 281100Z AUTO 08006KT 010V140 CAVOK 27/14 Q1024 NOSIG
  • 281030Z AUTO 07006KT 020V110 CAVOK 27/14 Q1024 NOSIG
  • 281000Z AUTO 07005KT 020V130 CAVOK 26/14 Q1024 NOSIG
  • 280930Z AUTO 08005KT 030V130 CAVOK 26/13 Q1024 NOSIG
  • 280900Z AUTO 11007KT 070V140 CAVOK 24/13 Q1025 NOSIG

TAF TAF LFBD
Valido dal 28 a 06 ore il 29 a 12 ore UTC


280500Z 2806/2912 06008KT CAVOK TX31/2815Z TN16/2806Z
ATIS : +33 5 57 92 81 04



MetMap, La meteo Aeronautica in un colpo d'occhio ! - Copyright ORBIFLY Dicembre 2007 - Disclaimer

ORBIFLY MET'MAP TEAM :

Programmazione e sviluppo : Alexandra Zaïnal
Concezione : Baudouin d'Aumeries
Aiuto per la programmazione : Marc-Olivier Méhu
Supporto tecnico e logistico : Manuel Goepfert
Aiuto per la traduzione : Arnaldo La Scala

Contatto : metmap@orbifly.com




FONTI E CREDITI :

   NOAA